createdAt,value
2023-01-09T00:01:24.300Z,2.30
2023-01-09T00:03:51.210Z,1.38
2023-01-09T00:06:17.834Z,2.42
2023-01-09T00:08:44.487Z,3.20
2023-01-09T00:11:11.607Z,1.77
2023-01-09T00:13:39.116Z,3.28
2023-01-09T00:16:09.685Z,1.30
2023-01-09T00:18:36.992Z,2.10
2023-01-09T00:21:05.898Z,1.40
2023-01-09T00:23:32.535Z,2.53
2023-01-09T00:26:28.016Z,3.30
2023-01-09T00:28:55.412Z,1.40
2023-01-09T00:31:23.419Z,4.05
2023-01-09T00:34:17.481Z,3.92
2023-01-09T00:36:44.067Z,5.72
2023-01-09T00:39:11.020Z,1.95
2023-01-09T00:41:45.622Z,5.35
2023-01-09T00:44:21.857Z,1.40
2023-01-09T00:46:55.300Z,0.93
2023-01-09T00:49:23.078Z,4.22
2023-01-09T00:51:52.370Z,0.68
2023-01-09T00:54:28.253Z,1.00
2023-01-09T00:56:56.148Z,1.30
2023-01-09T00:59:23.409Z,4.20
2023-01-09T01:01:50.361Z,3.25
2023-01-09T01:04:36.100Z,1.92
2023-01-09T01:07:24.036Z,1.27
2023-01-09T01:09:51.326Z,1.65
2023-01-09T01:12:18.422Z,4.65
2023-01-09T01:14:45.340Z,1.98
2023-01-09T01:17:12.132Z,1.30
2023-01-09T01:19:38.829Z,1.08
2023-01-09T01:22:05.506Z,4.68
2023-01-09T01:24:32.374Z,2.95
2023-01-09T01:26:59.239Z,1.42
2023-01-09T01:29:26.283Z,6.75
2023-01-09T01:31:53.332Z,4.75
2023-01-09T01:34:20.373Z,1.30
2023-01-09T01:36:49.632Z,2.22
2023-01-09T01:39:16.876Z,5.13
2023-01-09T01:41:44.135Z,2.38
2023-01-09T01:44:48.665Z,0.95
2023-01-09T01:47:17.677Z,4.65
2023-01-09T01:49:46.746Z,3.90
2023-01-09T01:52:14.279Z,3.25
2023-01-09T01:54:42.116Z,3.27
2023-01-09T01:57:11.330Z,2.15
2023-01-09T01:59:37.781Z,3.45
2023-01-09T02:02:05.186Z,4.35
2023-01-09T02:04:36.132Z,1.50
2023-01-09T02:07:06.822Z,3.17
2023-01-09T02:09:40.663Z,2.45
2023-01-09T02:12:20.353Z,1.30
2023-01-09T02:14:53.147Z,1.08
2023-01-09T02:17:30.264Z,2.13
2023-01-09T02:20:29.385Z,2.17
2023-01-09T02:23:40.839Z,3.67
2023-01-09T02:26:13.896Z,1.38
2023-01-09T02:29:04.281Z,1.33
2023-01-09T02:31:45.002Z,2.95
2023-01-09T02:34:26.150Z,4.43
2023-01-09T02:37:08.835Z,2.55
2023-01-09T02:39:46.147Z,1.63
2023-01-09T02:42:24.382Z,3.63
2023-01-09T02:47:18.662Z,1.73
2023-01-09T02:49:51.761Z,1.92
2023-01-09T02:52:39.380Z,4.00
2023-01-09T02:55:42.754Z,1.63
2023-01-09T02:58:36.287Z,2.17
2023-01-09T03:01:48.425Z,9.20
2023-01-09T03:04:33.112Z,3.15
2023-01-09T03:07:16.526Z,2.65
2023-01-09T03:09:45.548Z,1.55
2023-01-09T03:12:20.941Z,2.10
2023-01-09T03:14:58.240Z,2.30
2023-01-09T03:17:40.537Z,3.07
2023-01-09T03:20:12.888Z,6.72
2023-01-09T03:22:45.539Z,8.52
2023-01-09T03:25:13.414Z,2.78
2023-01-09T03:27:40.030Z,5.15
2023-01-09T03:30:08.901Z,2.80
2023-01-09T03:32:36.216Z,2.85
2023-01-09T03:35:02.767Z,1.60
2023-01-09T03:37:29.277Z,3.08
2023-01-09T03:39:56.394Z,2.13
2023-01-09T03:42:23.434Z,1.45
2023-01-09T03:44:50.959Z,1.60
2023-01-09T03:47:17.954Z,1.70
2023-01-09T03:49:46.769Z,3.55
2023-01-09T03:52:14.009Z,2.53
2023-01-09T03:54:40.808Z,1.98
2023-01-09T03:57:07.427Z,3.17
2023-01-09T03:59:34.440Z,1.95
2023-01-09T04:02:03.975Z,4.05
2023-01-09T04:04:31.290Z,3.97
2023-01-09T04:06:59.942Z,2.85
2023-01-09T04:09:27.009Z,2.53
2023-01-09T04:11:56.102Z,3.20
2023-01-09T04:14:23.404Z,5.78
2023-01-09T04:16:49.910Z,3.78
2023-01-09T04:19:17.351Z,5.32
2023-01-09T04:21:44.490Z,5.72
2023-01-09T04:24:11.717Z,4.18
2023-01-09T04:26:38.353Z,4.28
2023-01-09T04:29:07.431Z,5.78
2023-01-09T04:31:34.323Z,3.25
2023-01-09T04:34:02.029Z,3.42
2023-01-09T04:36:28.814Z,4.50
2023-01-09T04:38:57.607Z,5.20
2023-01-09T04:41:45.540Z,2.75
2023-01-09T04:44:12.132Z,1.90
2023-01-09T04:46:39.794Z,1.73
2023-01-09T04:49:06.458Z,7.65
2023-01-09T04:51:35.596Z,1.55
2023-01-09T04:54:02.337Z,2.65
2023-01-09T04:56:31.132Z,2.15
2023-01-09T04:58:58.163Z,5.15
2023-01-09T05:01:25.520Z,1.95
2023-01-09T05:03:52.176Z,1.90
2023-01-09T05:06:19.085Z,3.05
2023-01-09T05:08:47.304Z,3.10
2023-01-09T05:11:18.474Z,1.10
2023-01-09T05:13:45.987Z,2.53
2023-01-09T05:16:12.932Z,0.50
2023-01-09T05:18:40.026Z,1.33
2023-01-09T05:21:06.919Z,1.20
2023-01-09T05:23:34.604Z,1.88
2023-01-09T05:26:02.066Z,2.45
2023-01-09T05:28:29.123Z,1.23
2023-01-09T05:30:56.897Z,0.30
2023-01-09T05:33:24.006Z,0.50
2023-01-09T05:35:55.178Z,1.67
2023-01-09T05:38:22.110Z,4.55
2023-01-09T05:40:50.553Z,1.80
2023-01-09T05:45:47.058Z,0.73
2023-01-09T05:48:14.033Z,3.17
2023-01-09T05:50:40.568Z,1.30
2023-01-09T05:53:07.825Z,8.75
2023-01-09T05:55:34.578Z,0.80
2023-01-09T05:58:01.672Z,0.43
2023-01-09T06:00:28.428Z,1.95
2023-01-09T06:02:55.185Z,5.25
2023-01-09T06:05:22.308Z,6.07
2023-01-09T06:07:49.161Z,3.22
2023-01-09T06:10:16.420Z,2.63
2023-01-09T06:12:50.569Z,6.50
2023-01-09T06:15:18.029Z,1.00
2023-01-09T06:17:44.638Z,1.33
2023-01-09T06:20:14.997Z,4.57
2023-01-09T06:22:45.353Z,3.47
2023-01-09T06:25:13.069Z,3.35
2023-01-09T06:27:42.548Z,3.35
2023-01-09T06:30:11.428Z,4.32
2023-01-09T06:32:42.855Z,3.78
2023-01-09T06:35:09.810Z,3.25
2023-01-09T06:37:37.914Z,4.43
2023-01-09T06:40:09.143Z,2.67
2023-01-09T06:42:35.777Z,2.97
2023-01-09T06:45:07.112Z,11.10
2023-01-09T06:47:34.804Z,9.30
2023-01-09T06:50:01.310Z,3.63
2023-01-09T06:52:28.551Z,8.68
2023-01-09T06:54:55.273Z,0.50
2023-01-09T06:57:23.297Z,0.95
2023-01-09T06:59:51.641Z,12.30
2023-01-09T07:02:23.091Z,1.50
2023-01-09T07:04:51.557Z,1.55
2023-01-09T07:12:15.461Z,5.43
2023-01-09T07:14:44.902Z,3.28
2023-01-09T07:17:33.119Z,4.15
2023-01-09T07:20:01.092Z,5.68
2023-01-09T07:22:28.207Z,3.65
2023-01-09T07:24:57.190Z,1.70
2023-01-09T07:27:24.545Z,1.48
2023-01-09T07:29:53.648Z,0.85
2023-01-09T07:32:20.758Z,2.95
2023-01-09T07:34:49.748Z,7.13
2023-01-09T07:37:16.345Z,4.68
2023-01-09T07:39:43.498Z,2.97
2023-01-09T07:42:10.380Z,3.40
2023-01-09T07:44:39.679Z,4.47
2023-01-09T07:47:06.995Z,3.65
2023-01-09T07:49:38.543Z,1.90
2023-01-09T07:52:08.407Z,4.25
2023-01-09T07:54:34.955Z,1.88
2023-01-09T07:57:02.334Z,3.10
2023-01-09T07:59:29.816Z,3.92
2023-01-09T08:01:56.766Z,4.17
2023-01-09T08:04:28.693Z,0.68
2023-01-09T08:06:57.188Z,1.30
2023-01-09T08:09:24.181Z,1.77
2023-01-09T08:11:50.941Z,3.17
2023-01-09T08:14:20.413Z,4.63
2023-01-09T08:16:48.794Z,2.45
2023-01-09T08:19:15.525Z,5.05
2023-01-09T08:21:42.272Z,2.30
2023-01-09T08:24:09.924Z,2.60
2023-01-09T08:26:36.505Z,1.35
2023-01-09T08:29:06.680Z,1.92
2023-01-09T08:31:34.283Z,1.85
2023-01-09T08:34:00.940Z,1.38
2023-01-09T08:36:29.837Z,1.50
2023-01-09T08:38:59.089Z,0.60
2023-01-09T08:41:47.189Z,0.68
2023-01-09T08:44:35.705Z,4.30
2023-01-09T08:47:06.080Z,5.20
2023-01-09T08:49:34.251Z,0.82
2023-01-09T08:52:00.962Z,3.38
2023-01-09T08:54:31.326Z,4.50
2023-01-09T08:56:58.444Z,2.45
2023-01-09T08:59:25.224Z,1.45
2023-01-09T09:01:51.962Z,0.70
2023-01-09T09:04:19.050Z,3.80
2023-01-09T09:06:46.355Z,0.98
2023-01-09T09:09:14.215Z,2.88
2023-01-09T09:11:40.954Z,1.25
2023-01-09T09:14:28.021Z,4.25
2023-01-09T09:16:56.127Z,3.30
2023-01-09T09:19:25.057Z,1.65
2023-01-09T09:21:53.998Z,4.82
2023-01-09T09:24:24.561Z,1.92
2023-01-09T09:26:52.627Z,2.42
2023-01-09T09:29:20.277Z,1.27
2023-01-09T09:31:46.892Z,3.28
2023-01-09T09:34:17.381Z,3.42
2023-01-09T09:36:44.336Z,3.47
2023-01-09T09:39:14.509Z,5.53
2023-01-09T09:42:25.600Z,1.95
2023-01-09T09:45:06.925Z,4.32
2023-01-09T09:47:46.384Z,5.30
2023-01-09T09:50:33.392Z,3.60
2023-01-09T09:53:17.016Z,5.75
2023-01-09T09:55:45.654Z,9.27
2023-01-09T09:58:29.575Z,1.25
2023-01-09T10:01:00.401Z,5.05
2023-01-09T10:03:56.938Z,2.45
2023-01-09T10:06:31.370Z,1.92
2023-01-09T10:09:16.573Z,5.38
2023-01-09T10:11:51.624Z,2.38
2023-01-09T10:14:24.443Z,3.70
2023-01-09T10:17:13.360Z,5.60
2023-01-09T10:20:02.422Z,3.35
2023-01-09T10:22:50.712Z,1.75
2023-01-09T10:25:52.695Z,2.63
2023-01-09T10:28:30.195Z,6.88
2023-01-09T10:31:05.807Z,3.65
2023-01-09T10:33:56.910Z,7.28
2023-01-09T10:36:42.216Z,10.82
2023-01-09T10:39:20.358Z,10.68
2023-01-09T10:41:53.462Z,4.15
2023-01-09T10:44:37.684Z,6.65
2023-01-09T10:47:27.973Z,5.45
2023-01-09T10:49:58.015Z,5.72
2023-01-09T10:52:42.472Z,5.85
2023-01-09T10:55:23.487Z,6.57
2023-01-09T10:57:59.004Z,1.58
2023-01-09T11:00:26.004Z,4.38
2023-01-09T11:02:53.943Z,2.85
2023-01-09T11:05:32.943Z,7.60
2023-01-09T11:08:14.017Z,3.28
2023-01-09T11:11:07.029Z,2.40
2023-01-09T11:13:36.554Z,3.10
2023-01-09T11:16:22.244Z,3.28
2023-01-09T11:18:48.882Z,2.78
2023-01-09T11:21:30.844Z,3.95
2023-01-09T11:24:26.723Z,8.45
2023-01-09T11:27:17.370Z,4.18
2023-01-09T11:29:43.854Z,5.00
2023-01-09T11:32:23.936Z,3.53
2023-01-09T11:34:51.846Z,4.15
2023-01-09T11:37:28.588Z,5.32
2023-01-09T11:39:57.670Z,6.90
2023-01-09T11:42:49.722Z,5.13
2023-01-09T11:45:19.029Z,3.38
2023-01-09T11:47:46.452Z,9.80
2023-01-09T11:50:25.783Z,10.47
2023-01-09T11:53:16.968Z,5.50
2023-01-09T11:55:48.610Z,2.05
2023-01-09T11:58:18.304Z,6.00
2023-01-09T12:01:28.047Z,2.22
2023-01-09T12:04:12.171Z,6.90
2023-01-09T12:07:22.326Z,7.53
2023-01-09T12:09:59.672Z,3.88
2023-01-09T12:13:11.188Z,4.90
2023-01-09T12:16:05.982Z,6.82
2023-01-09T12:19:25.878Z,8.13
2023-01-09T12:22:08.043Z,8.00
2023-01-09T12:24:55.203Z,5.25
2023-01-09T12:27:51.315Z,11.97
2023-01-09T12:30:36.933Z,5.03
2023-01-09T12:33:25.364Z,5.60
2023-01-09T12:36:16.001Z,8.15
2023-01-09T12:38:56.957Z,7.88
2023-01-09T12:41:48.371Z,1.52
2023-01-09T12:44:59.596Z,5.47
2023-01-09T12:47:47.033Z,7.15
2023-01-09T12:50:39.727Z,1.55
2023-01-09T12:53:15.617Z,2.80
2023-01-09T12:55:53.173Z,1.75
2023-01-09T12:58:47.153Z,3.10
2023-01-09T13:01:24.860Z,3.28
2023-01-09T13:04:16.629Z,4.57
2023-01-09T13:06:51.014Z,5.05
2023-01-09T13:09:26.632Z,3.30
2023-01-09T13:11:59.805Z,8.40
2023-01-09T13:15:04.049Z,3.80
2023-01-09T13:17:41.966Z,8.35
2023-01-09T13:20:29.121Z,9.82
2023-01-09T13:22:56.669Z,8.18
2023-01-09T13:25:41.300Z,9.30
2023-01-09T13:28:21.110Z,9.70
2023-01-09T13:31:11.532Z,9.52
2023-01-09T13:33:45.560Z,5.10
2023-01-09T13:36:29.186Z,11.90
2023-01-09T13:38:58.181Z,4.78
2023-01-09T13:41:45.949Z,8.25
2023-01-09T13:44:21.272Z,13.40
2023-01-09T13:46:53.982Z,9.77
2023-01-09T13:49:33.774Z,11.80
2023-01-09T13:52:29.520Z,7.38
2023-01-09T13:54:56.370Z,5.72
2023-01-09T13:57:35.238Z,8.10
2023-01-09T14:00:32.570Z,4.70
2023-01-09T14:03:14.091Z,9.75
2023-01-09T14:05:40.578Z,7.28
2023-01-09T14:08:13.942Z,11.52
2023-01-09T14:10:43.706Z,5.78
2023-01-09T14:13:21.602Z,8.18
2023-01-09T14:15:52.648Z,13.48
2023-01-09T14:18:30.130Z,16.77
2023-01-09T14:21:05.149Z,6.45
2023-01-09T14:23:52.178Z,4.35
2023-01-09T14:26:23.374Z,8.80
2023-01-09T14:28:50.959Z,10.57
2023-01-09T14:31:33.108Z,7.00
2023-01-09T14:34:31.874Z,8.25
2023-01-09T14:37:02.124Z,7.47
2023-01-09T14:39:32.888Z,10.82
2023-01-09T14:42:09.310Z,13.10
2023-01-09T14:44:49.707Z,7.10
2023-01-09T14:47:37.240Z,5.93
2023-01-09T14:50:27.471Z,10.63
2023-01-09T14:52:59.599Z,8.75
2023-01-09T14:55:33.444Z,11.98
2023-01-09T14:58:22.890Z,16.92
2023-01-09T15:02:40.442Z,4.38
2023-01-09T15:05:11.079Z,7.78
2023-01-09T15:08:01.945Z,13.30
2023-01-09T15:10:33.139Z,7.78
2023-01-09T15:13:03.632Z,11.25
2023-01-09T15:15:30.268Z,10.95
2023-01-09T15:18:02.029Z,7.03
2023-01-09T15:20:32.599Z,9.00
2023-01-09T15:23:01.617Z,13.02
2023-01-09T15:25:40.498Z,10.88
2023-01-09T15:28:32.400Z,6.30
2023-01-09T15:31:27.073Z,7.88
2023-01-09T15:33:54.242Z,8.07
2023-01-09T15:36:24.891Z,12.15
2023-01-09T15:38:56.078Z,11.88
2023-01-09T15:41:46.445Z,6.55
2023-01-09T15:44:29.521Z,12.65
2023-01-09T15:47:00.080Z,10.48
2023-01-09T15:49:27.210Z,11.50
2023-01-09T15:51:54.240Z,9.82
2023-01-09T15:54:34.109Z,8.40
2023-01-09T15:57:29.264Z,7.72
2023-01-09T16:00:17.213Z,9.98
2023-01-09T16:03:05.029Z,7.78
2023-01-09T16:05:33.467Z,6.82
2023-01-09T16:08:02.801Z,12.20
2023-01-09T16:10:35.098Z,14.27
2023-01-09T16:13:02.980Z,5.43
2023-01-09T16:15:33.587Z,5.63
2023-01-09T16:18:18.110Z,11.73
2023-01-09T16:20:48.237Z,6.93
2023-01-09T16:23:30.492Z,10.05
2023-01-09T16:26:13.401Z,8.32
2023-01-09T16:28:41.361Z,10.63
2023-01-09T16:31:20.476Z,6.97
2023-01-09T16:33:52.176Z,11.48
2023-01-09T16:36:19.171Z,9.55
2023-01-09T16:38:46.552Z,6.50
2023-01-09T16:41:38.978Z,10.77
2023-01-09T16:44:09.638Z,15.05
2023-01-09T16:46:39.458Z,5.47
2023-01-09T16:49:24.131Z,7.97
2023-01-09T16:51:51.791Z,10.07
2023-01-09T16:54:20.615Z,5.53
2023-01-09T16:56:49.373Z,4.50
2023-01-09T16:59:24.786Z,16.95
2023-01-09T17:01:53.842Z,16.40
2023-01-09T17:04:23.886Z,15.52
2023-01-09T17:06:52.639Z,13.88
2023-01-09T17:09:23.658Z,8.55
2023-01-09T17:11:51.930Z,12.52
2023-01-09T17:14:18.552Z,11.70
2023-01-09T17:16:48.409Z,7.53
2023-01-09T17:19:20.198Z,16.58
2023-01-09T17:21:47.362Z,12.63
2023-01-09T17:24:33.965Z,9.48
2023-01-09T17:27:19.889Z,9.38
2023-01-09T17:29:46.636Z,6.28
2023-01-09T17:32:15.608Z,5.13
2023-01-09T17:34:43.850Z,5.65
2023-01-09T17:37:19.124Z,12.18
2023-01-09T17:39:46.583Z,9.50
2023-01-09T17:42:13.916Z,12.05
2023-01-09T17:44:40.851Z,4.95
2023-01-09T17:47:15.780Z,9.65
2023-01-09T17:49:42.564Z,13.00
2023-01-09T17:52:09.385Z,8.00
2023-01-09T17:54:36.344Z,7.07
2023-01-09T17:57:03.463Z,11.32
2023-01-09T17:59:30.718Z,4.13
2023-01-09T18:02:00.358Z,11.32
2023-01-09T18:04:27.518Z,6.93
2023-01-09T18:06:57.193Z,5.18
2023-01-09T18:09:24.212Z,10.05
2023-01-09T18:11:54.421Z,6.03
2023-01-09T18:14:21.016Z,8.88
2023-01-09T18:16:47.969Z,11.43
2023-01-09T18:19:14.525Z,4.70
2023-01-09T18:21:42.639Z,6.45
2023-01-09T18:24:11.735Z,5.90
2023-01-09T18:26:38.259Z,4.68
2023-01-09T18:29:05.304Z,8.75
2023-01-09T18:31:32.136Z,5.70
2023-01-09T18:34:02.306Z,13.35
2023-01-09T18:36:30.510Z,8.85
2023-01-09T18:39:06.536Z,7.63
2023-01-09T18:41:33.433Z,6.88
2023-01-09T18:44:01.632Z,10.15
2023-01-09T18:46:32.284Z,5.68
2023-01-09T18:49:01.984Z,9.27
2023-01-09T18:51:33.601Z,7.25
2023-01-09T18:54:00.710Z,9.27
2023-01-09T18:56:29.478Z,7.50
2023-01-09T18:58:58.402Z,8.00
2023-01-09T19:01:31.260Z,8.32
2023-01-09T19:03:59.775Z,16.13
2023-01-09T19:06:29.242Z,8.30
2023-01-09T19:08:58.047Z,6.70
2023-01-09T19:11:26.292Z,7.75
2023-01-09T19:13:53.333Z,6.38
2023-01-09T19:16:20.461Z,9.35
2023-01-09T19:18:49.939Z,9.57
2023-01-09T19:21:22.746Z,9.05
2023-01-09T19:23:50.766Z,13.25
2023-01-09T19:26:27.486Z,9.13
2023-01-09T19:28:57.772Z,6.60
2023-01-09T19:31:28.436Z,6.97
2023-01-09T19:33:56.284Z,9.95
2023-01-09T19:36:23.470Z,10.20
2023-01-09T19:38:55.519Z,13.07
2023-01-09T19:41:23.282Z,11.55
2023-01-09T19:43:50.639Z,14.38
2023-01-09T19:46:19.826Z,22.15
2023-01-09T19:48:49.413Z,11.63
2023-01-09T19:51:21.431Z,10.48
2023-01-09T19:56:30.226Z,11.48
2023-01-09T19:59:05.085Z,14.85
2023-01-09T20:01:39.756Z,12.70
2023-01-09T20:04:14.011Z,7.82
2023-01-09T20:06:46.480Z,8.48
2023-01-09T20:09:15.509Z,9.00
2023-01-09T20:11:43.153Z,12.10
2023-01-09T20:14:14.949Z,9.27
2023-01-09T20:16:43.184Z,9.98
2023-01-09T20:19:12.110Z,5.53
2023-01-09T20:21:39.493Z,7.68
2023-01-09T20:24:14.429Z,13.10
2023-01-09T20:26:41.898Z,10.18
2023-01-09T20:29:10.088Z,12.67
2023-01-09T20:31:43.032Z,16.00
2023-01-09T20:34:14.519Z,10.95
2023-01-09T20:36:41.808Z,6.18
2023-01-09T20:39:13.762Z,7.45
2023-01-09T20:41:40.502Z,10.68
2023-01-09T20:44:12.039Z,6.70
2023-01-09T20:46:43.680Z,17.30
2023-01-09T20:49:12.846Z,8.15
2023-01-09T20:51:47.660Z,9.98
2023-01-09T20:54:15.852Z,12.38
2023-01-09T20:56:43.061Z,8.88
2023-01-09T20:59:22.921Z,12.27
2023-01-09T21:01:50.827Z,7.45
2023-01-09T21:04:21.762Z,8.55
2023-01-09T21:06:57.247Z,6.30
2023-01-09T21:09:25.608Z,6.03
2023-01-09T21:14:20.480Z,8.50
2023-01-09T21:19:22.564Z,6.47
2023-01-09T21:21:51.583Z,9.00
2023-01-09T21:24:23.715Z,8.02
2023-01-09T21:26:52.655Z,4.32
2023-01-09T21:29:24.458Z,8.63
2023-01-09T21:31:51.496Z,8.07
2023-01-09T21:34:20.991Z,9.82
2023-01-09T21:36:48.969Z,6.88
2023-01-09T21:39:18.155Z,16.90
2023-01-09T21:42:03.295Z,12.85
2023-01-09T21:44:48.791Z,12.13
2023-01-09T21:47:15.657Z,8.75
2023-01-09T21:49:44.070Z,12.20
2023-01-09T21:54:41.319Z,18.45
2023-01-09T21:57:08.550Z,17.88
2023-01-09T21:59:36.062Z,11.05
2023-01-09T22:02:03.090Z,16.27
2023-01-09T22:04:30.608Z,13.30
2023-01-09T22:06:57.269Z,20.23
2023-01-09T22:09:24.317Z,14.00
2023-01-09T22:11:53.399Z,10.27
2023-01-09T22:14:21.801Z,15.98
2023-01-09T22:19:36.685Z,8.93
2023-01-09T22:22:07.267Z,12.88
2023-01-09T22:24:34.970Z,13.27
2023-01-09T22:27:01.703Z,14.77
2023-01-09T22:29:29.509Z,8.30
2023-01-09T22:31:56.443Z,12.07
2023-01-09T22:34:24.386Z,6.68
2023-01-09T22:36:53.777Z,6.28
2023-01-09T22:39:22.860Z,11.95
2023-01-09T22:41:56.661Z,14.90
2023-01-09T22:44:26.383Z,12.35
2023-01-09T22:46:52.886Z,10.95
2023-01-09T22:49:20.722Z,15.52
2023-01-09T22:51:47.498Z,12.13
2023-01-09T22:54:14.741Z,7.05
2023-01-09T22:56:42.452Z,9.77
2023-01-09T22:59:10.278Z,7.80
2023-01-09T23:01:36.897Z,14.88
2023-01-09T23:04:05.058Z,19.73
2023-01-09T23:06:31.658Z,8.48
2023-01-09T23:09:00.410Z,6.57
2023-01-09T23:11:48.000Z,9.07
2023-01-09T23:14:14.886Z,14.95
2023-01-09T23:16:42.090Z,11.25
2023-01-09T23:19:10.170Z,9.75
2023-01-09T23:21:38.957Z,18.00
2023-01-09T23:24:07.434Z,7.88
2023-01-09T23:26:39.019Z,9.43
2023-01-09T23:29:07.789Z,13.55
2023-01-09T23:31:36.448Z,11.40
2023-01-09T23:34:08.494Z,4.70
2023-01-09T23:36:35.696Z,8.07
2023-01-09T23:39:04.175Z,11.95
2023-01-09T23:41:50.902Z,16.00
2023-01-09T23:44:20.115Z,9.32
2023-01-09T23:46:47.089Z,10.57
2023-01-09T23:49:16.283Z,12.85
2023-01-09T23:51:43.639Z,6.22
2023-01-09T23:54:12.557Z,13.10
2023-01-09T23:56:40.613Z,18.38
2023-01-09T23:59:10.493Z,14.23
